Time;durP1;ratioP1;P1;durP2;ratioP2;P2;SDS_P1;SDS_P2;PMS_P1;PMS_P2;Temp;Humidity;BMP_temperature;BMP_pressure;BME280_temperature;BME280_humidity;BME280_pressure;Samples;Min_cycle;Max_cycle;Signal;HPM_P1;HPM_P2
2022/10/28 00:01:15;;;;;;;23.35;12.75;;;18.90;99.90;;;;;;5041976;28;20052;-73
2022/10/28 00:03:45;;;;;;;23.23;11.95;;;18.90;99.90;;;;;;5050239;28;20384;-74
2022/10/28 00:06:16;;;;;;;25.40;10.32;;;18.90;99.90;;;;;;5029337;28;20076;-72
2022/10/28 00:08:44;;;;;;;26.00;13.05;;;18.90;99.90;;;;;;5047288;28;20056;-74
2022/10/28 00:11:14;;;;;;;28.63;14.98;;;18.90;99.90;;;;;;5050455;28;20123;-75
2022/10/28 00:13:43;;;;;;;21.70;12.63;;;18.90;99.90;;;;;;5066416;28;20116;-72
2022/10/28 00:16:14;;;;;;;24.08;12.13;;;18.90;99.90;;;;;;5028868;28;20068;-72
2022/10/28 00:18:42;;;;;;;27.73;13.55;;;18.90;99.90;;;;;;5078070;28;20069;-73
2022/10/28 00:21:13;;;;;;;22.60;13.38;;;19.00;99.90;;;;;;5044875;28;20056;-73
2022/10/28 00:23:40;;;;;;;21.55;12.55;;;19.00;99.90;;;;;;5057380;28;20055;-74
2022/10/28 00:26:16;;;;;;;29.02;13.07;;;18.90;99.90;;;;;;5062507;28;20452;-74
2022/10/28 00:28:48;;;;;;;;;;;19.00;99.90;;;;;;5036404;28;20049;-73
2022/10/28 00:31:18;;;;;;;27.45;13.15;;;19.00;99.90;;;;;;5049938;28;19978;-74
2022/10/28 00:33:45;;;;;;;24.27;11.40;;;19.00;99.90;;;;;;5033801;28;20589;-73
2022/10/28 00:36:13;;;;;;;25.98;12.95;;;19.00;99.90;;;;;;5050536;28;20040;-74
2022/10/28 00:38:42;;;;;;;28.85;13.13;;;19.00;99.90;;;;;;5049740;28;20149;-73
2022/10/28 00:41:12;;;;;;;20.70;12.52;;;19.00;99.90;;;;;;5051366;28;20052;-72
2022/10/28 00:43:45;;;;;;;23.27;12.25;;;18.90;99.90;;;;;;5046185;28;20052;-73
2022/10/28 00:46:24;;;;;;;28.77;14.38;;;18.90;99.90;;;;;;5061622;28;20394;-73
2022/10/28 00:49:02;;;;;;;24.10;12.43;;;18.80;99.90;;;;;;5057087;28;20036;-74
2022/10/28 00:51:32;;;;;;;24.98;13.93;;;18.80;99.90;;;;;;5053036;28;20044;-73
2022/10/28 00:54:01;;;;;;;29.33;14.45;;;18.80;99.90;;;;;;5034193;28;20383;-72
2022/10/28 00:56:32;;;;;;;24.50;13.63;;;18.80;99.90;;;;;;5051983;28;20098;-73
2022/10/28 00:59:05;;;;;;;31.00;14.63;;;18.80;99.90;;;;;;5034345;28;20048;-76
2022/10/28 01:01:33;;;;;;;30.88;13.90;;;18.80;99.90;;;;;;5051051;28;20049;-73
2022/10/28 01:04:01;;;;;;;26.20;13.52;;;18.80;99.90;;;;;;5034156;28;20111;-73
2022/10/28 01:06:29;;;;;;;22.80;12.18;;;18.80;99.90;;;;;;5017843;28;20107;-73
2022/10/28 01:08:56;;;;;;;27.15;14.55;;;18.80;99.90;;;;;;5051794;28;20052;-73
2022/10/28 01:12:01;;;;;;;27.27;13.32;;;18.70;99.90;;;;;;5033952;28;20670;-75
2022/10/28 01:14:52;;;;;;;30.20;13.82;;;18.70;99.90;;;;;;5047444;28;20081;-73
2022/10/28 01:17:45;;;;;;;29.13;15.82;;;18.60;99.90;;;;;;5049679;28;20375;-73
2022/10/28 01:20:30;;;;;;;27.23;12.82;;;18.70;99.90;;;;;;5034046;28;20080;-74
2022/10/28 01:22:59;;;;;;;23.85;12.20;;;18.70;99.90;;;;;;5034134;28;20064;-75
2022/10/28 01:25:42;;;;;;;20.88;13.43;;;18.70;99.90;;;;;;5044884;28;20043;-73
2022/10/28 01:28:19;;;;;;;34.53;13.48;;;18.70;99.90;;;;;;5059906;28;20045;-75
2022/10/28 01:31:08;;;;;;;30.42;14.52;;;18.80;99.90;;;;;;5045006;28;20041;-74
2022/10/28 01:33:42;;;;;;;20.58;12.50;;;18.70;99.90;;;;;;5063838;28;20518;-79
2022/10/28 01:37:08;;;;;;;28.63;13.85;;;18.70;99.90;;;;;;5059794;28;20721;-74
2022/10/28 01:40:08;;;;;;;22.40;12.65;;;18.70;99.90;;;;;;5009400;28;20415;-75
2022/10/28 01:43:06;;;;;;;22.98;13.57;;;18.70;99.90;;;;;;5003641;28;20056;-73
2022/10/28 01:45:41;;;;;;;22.92;11.57;;;18.60;99.90;;;;;;5050026;28;20114;-75
2022/10/28 01:48:14;;;;;;;23.42;12.25;;;18.70;99.90;;;;;;5033071;28;20092;-75
2022/10/28 01:50:42;;;;;;;19.35;12.93;;;18.70;99.90;;;;;;5066264;28;20095;-75
2022/10/28 01:53:17;;;;;;;21.42;12.20;;;18.60;99.90;;;;;;5049950;28;20059;-75
2022/10/28 01:55:51;;;;;;;22.77;12.13;;;18.60;99.90;;;;;;5065973;28;20123;-73
2022/10/28 01:58:23;;;;;;;26.25;12.10;;;18.60;99.90;;;;;;5049960;28;20049;-75
2022/10/28 02:00:51;;;;;;;22.35;11.90;;;18.60;99.90;;;;;;5049918;28;20053;-73
2022/10/28 02:03:19;;;;;;;23.30;12.45;;;18.60;99.90;;;;;;5033005;28;20059;-74
2022/10/28 02:05:49;;;;;;;18.45;11.43;;;18.60;99.90;;;;;;5049218;28;20068;-73
2022/10/28 02:08:19;;;;;;;21.55;11.45;;;18.60;99.90;;;;;;5049335;28;20049;-74
2022/10/28 02:11:28;;;;;;;20.20;12.25;;;18.60;99.90;;;;;;5051353;28;20049;-75
2022/10/28 02:14:04;;;;;;;24.90;12.55;;;18.60;99.90;;;;;;5050210;28;20056;-79
2022/10/28 02:16:38;;;;;;;25.80;12.45;;;18.70;99.90;;;;;;5067250;28;20049;-75
2022/10/28 02:19:27;;;;;;;20.92;12.38;;;18.70;99.90;;;;;;5052862;28;20148;-74
2022/10/28 02:22:03;;;;;;;28.27;13.73;;;18.70;99.90;;;;;;5035661;28;20051;-74
2022/10/28 02:24:37;;;;;;;23.42;12.82;;;18.70;99.90;;;;;;5069161;28;20123;-74
2022/10/28 02:27:25;;;;;;;24.08;12.43;;;18.70;99.90;;;;;;5069245;28;20410;-73
2022/10/28 02:30:01;;;;;;;22.05;11.15;;;18.70;99.90;;;;;;5051167;28;20036;-74
2022/10/28 02:32:33;;;;;;;22.63;12.07;;;18.70;99.90;;;;;;5036000;28;20715;-73
2022/10/28 02:35:02;;;;;;;20.15;11.70;;;18.70;99.90;;;;;;5052292;28;20067;-74
2022/10/28 02:37:33;;;;;;;18.35;10.60;;;18.70;99.90;;;;;;5068128;28;20404;-74
2022/10/28 02:40:06;;;;;;;26.13;11.63;;;18.70;99.90;;;;;;5051897;28;20129;-74
2022/10/28 02:42:39;;;;;;;21.15;12.32;;;18.70;99.90;;;;;;5033459;28;20383;-73
2022/10/28 02:45:20;;;;;;;21.88;12.05;;;18.70;99.90;;;;;;5065540;28;20052;-74
2022/10/28 02:47:56;;;;;;;18.40;10.50;;;18.70;99.90;;;;;;5032526;28;20065;-74
2022/10/28 02:50:33;;;;;;;15.20;9.82;;;18.70;99.90;;;;;;5049306;28;20055;-74
2022/10/28 02:53:04;;;;;;;26.13;11.13;;;18.70;99.90;;;;;;5032682;28;20423;-74
2022/10/28 02:55:38;;;;;;;18.80;11.82;;;18.70;99.90;;;;;;5032369;28;20049;-74
2022/10/28 02:58:06;;;;;;;26.90;12.20;;;18.70;99.90;;;;;;5065597;28;20451;-73
2022/10/28 03:00:34;;;;;;;25.17;11.48;;;18.70;99.90;;;;;;5051454;28;20037;-76
2022/10/28 03:03:05;;;;;;;22.15;11.50;;;18.70;99.90;;;;;;5049864;28;20049;-74
2022/10/28 03:05:32;;;;;;;20.92;11.32;;;18.70;99.90;;;;;;5048847;28;20048;-74
2022/10/28 03:08:00;;;;;;;23.63;11.77;;;18.70;99.90;;;;;;5065062;28;20057;-73
2022/10/28 03:10:27;;;;;;;29.40;14.52;;;18.70;99.90;;;;;;5048515;28;20124;-76
2022/10/28 03:12:55;;;;;;;20.15;11.65;;;18.70;99.90;;;;;;5032047;28;20544;-73
2022/10/28 03:15:22;;;;;;;24.80;12.10;;;18.70;99.90;;;;;;5048571;28;20056;-77
2022/10/28 03:17:50;;;;;;;21.35;11.18;;;18.70;99.90;;;;;;5047975;28;20049;-74
2022/10/28 03:20:18;;;;;;;25.48;12.77;;;18.80;99.90;;;;;;5048521;28;20498;-73
2022/10/28 03:22:46;;;;;;;25.40;12.38;;;18.70;99.90;;;;;;5048268;28;20041;-73
2022/10/28 03:25:13;;;;;;;26.42;12.50;;;18.70;99.90;;;;;;5031921;28;20053;-74
2022/10/28 03:27:41;;;;;;;27.67;12.40;;;18.70;99.90;;;;;;5049442;28;20087;-74
2022/10/28 03:30:09;;;;;;;19.00;11.07;;;18.70;99.90;;;;;;5049525;28;20099;-73
2022/10/28 03:32:36;;;;;;;24.63;13.48;;;18.70;99.90;;;;;;5033070;28;20471;-75
2022/10/28 03:35:04;;;;;;;25.00;13.20;;;18.70;99.90;;;;;;5064355;28;20076;-73
2022/10/28 03:37:32;;;;;;;20.70;11.52;;;18.70;99.90;;;;;;5048281;28;20053;-74
2022/10/28 03:40:01;;;;;;;17.80;12.55;;;18.70;99.90;;;;;;5031379;28;20060;-75
2022/10/28 03:42:28;;;;;;;23.45;12.85;;;18.70;99.90;;;;;;5047696;28;20049;-74
2022/10/28 03:44:56;;;;;;;24.70;12.30;;;18.70;99.90;;;;;;5047940;28;20095;-73
2022/10/28 03:47:23;;;;;;;19.33;11.15;;;18.70;99.90;;;;;;5048915;28;20076;-74
2022/10/28 03:49:51;;;;;;;23.40;12.50;;;18.60;99.90;;;;;;5031439;28;20080;-75
2022/10/28 03:52:18;;;;;;;27.00;13.07;;;18.70;99.90;;;;;;5063767;28;20116;-74
2022/10/28 03:54:45;;;;;;;22.33;11.55;;;18.60;99.90;;;;;;5031585;28;20048;-75
2022/10/28 03:57:13;;;;;;;24.40;11.90;;;18.70;99.90;;;;;;5047484;28;20048;-74
2022/10/28 03:59:40;;;;;;;32.40;13.25;;;18.70;99.90;;;;;;5047528;28;20068;-78
2022/10/28 04:02:08;;;;;;;21.80;12.43;;;18.60;99.90;;;;;;5063828;28;20057;-75
2022/10/28 04:04:35;;;;;;;21.25;13.25;;;18.70;99.90;;;;;;5030962;28;20139;-73
2022/10/28 04:07:03;;;;;;;20.40;12.07;;;18.60;99.90;;;;;;5064089;28;20049;-74
2022/10/28 04:09:31;;;;;;;25.20;13.27;;;18.60;99.90;;;;;;5057133;28;20040;-74
2022/10/28 04:11:58;;;;;;;19.95;11.48;;;18.70;99.90;;;;;;5050798;28;20068;-73
2022/10/28 04:14:25;;;;;;;20.67;12.43;;;18.70;99.90;;;;;;5050933;28;20052;-77
2022/10/28 04:16:53;;;;;;;24.80;11.07;;;18.70;99.90;;;;;;5067468;28;20106;-74
2022/10/28 04:19:20;;;;;;;26.95;12.13;;;18.70;99.90;;;;;;5067475;28;20456;-73
2022/10/28 04:21:48;;;;;;;28.10;12.35;;;18.70;99.90;;;;;;5060951;28;20049;-73
2022/10/28 04:24:16;;;;;;;22.63;12.93;;;18.70;99.90;;;;;;5068721;28;20052;-73
2022/10/28 04:26:43;;;;;;;26.70;12.50;;;18.70;99.90;;;;;;5067506;28;20045;-73
2022/10/28 04:29:11;;;;;;;22.10;11.30;;;18.70;99.90;;;;;;5066772;28;20531;-75
2022/10/28 04:31:39;;;;;;;31.30;13.32;;;18.70;99.90;;;;;;5068474;28;20475;-74
2022/10/28 04:34:06;;;;;;;26.92;13.55;;;18.70;99.90;;;;;;5065862;28;20056;-74
2022/10/28 04:36:34;;;;;;;24.10;13.18;;;18.70;99.90;;;;;;5062550;28;20044;-74
2022/10/28 04:39:02;;;;;;;17.13;10.98;;;18.70;99.90;;;;;;5073026;28;20056;-73
2022/10/28 04:41:30;;;;;;;25.63;12.55;;;18.70;99.90;;;;;;5073518;28;20067;-77
2022/10/28 04:43:57;;;;;;;27.92;13.02;;;18.70;99.90;;;;;;5080253;28;20052;-75
2022/10/28 04:46:25;;;;;;;21.45;12.48;;;18.70;99.90;;;;;;5076168;28;20433;-73
2022/10/28 04:48:52;;;;;;;19.63;11.02;;;18.70;99.90;;;;;;5063898;28;20499;-74
2022/10/28 04:51:20;;;;;;;20.00;11.35;;;18.70;99.90;;;;;;5071726;28;20048;-74
2022/10/28 04:53:48;;;;;;;23.40;12.57;;;18.70;99.90;;;;;;5063193;28;20063;-73
2022/10/28 04:56:15;;;;;;;26.17;11.98;;;18.70;99.90;;;;;;5050210;28;20066;-73
2022/10/28 04:58:43;;;;;;;24.15;11.15;;;18.70;99.90;;;;;;5050613;28;20045;-73
2022/10/28 05:01:10;;;;;;;25.10;12.40;;;18.70;99.90;;;;;;5033687;28;20045;-75
2022/10/28 05:03:38;;;;;;;25.10;12.30;;;18.70;99.90;;;;;;5061677;28;20047;-78
2022/10/28 05:06:06;;;;;;;18.10;10.27;;;18.70;99.90;;;;;;5069230;28;20045;-73
2022/10/28 05:08:33;;;;;;;20.58;11.13;;;18.70;99.90;;;;;;5070387;28;20051;-74
2022/10/28 05:11:01;;;;;;;23.92;12.35;;;18.70;99.90;;;;;;5070307;28;20394;-73
2022/10/28 05:13:28;;;;;;;31.20;11.27;;;18.70;99.90;;;;;;5068858;28;20040;-74
2022/10/28 05:15:56;;;;;;;20.70;11.57;;;18.80;99.90;;;;;;5053334;28;20155;-74
2022/10/28 05:18:23;;;;;;;27.65;11.63;;;18.70;99.90;;;;;;5070158;28;20049;-73
2022/10/28 05:20:53;;;;;;;16.98;9.88;;;18.70;99.90;;;;;;5070123;28;20040;-73
2022/10/28 05:23:21;;;;;;;31.90;13.30;;;18.70;99.90;;;;;;5053689;28;20056;-75
2022/10/28 05:25:50;;;;;;;30.67;12.80;;;18.70;99.90;;;;;;5070347;28;20441;-75
2022/10/28 05:28:20;;;;;;;20.23;11.30;;;18.70;99.90;;;;;;5053608;28;20051;-76
2022/10/28 05:30:48;;;;;;;19.77;10.68;;;18.70;99.90;;;;;;5070247;28;20053;-74
2022/10/28 05:33:15;;;;;;;19.17;10.75;;;18.70;99.90;;;;;;5069287;28;20050;-74
2022/10/28 05:35:43;;;;;;;24.52;12.18;;;18.80;99.90;;;;;;5069044;28;20049;-74
2022/10/28 05:38:10;;;;;;;30.95;10.52;;;18.80;99.90;;;;;;5071343;28;20451;-73
2022/10/28 05:40:38;;;;;;;27.33;12.02;;;18.90;99.90;;;;;;5072160;28;20550;-74
2022/10/28 05:43:08;;;;;;;25.73;11.95;;;18.90;99.90;;;;;;5054037;28;20143;-74
2022/10/28 05:45:36;;;;;;;17.35;9.52;;;19.00;99.90;;;;;;5053752;28;20056;-75
2022/10/28 05:48:03;;;;;;;17.38;9.73;;;19.10;99.90;;;;;;5069501;28;20051;-74
2022/10/28 05:50:31;;;;;;;25.70;9.95;;;19.20;99.90;;;;;;5069488;28;20130;-77
2022/10/28 05:52:59;;;;;;;22.73;9.95;;;19.30;99.90;;;;;;5069142;28;20083;-74
2022/10/28 05:55:28;;;;;;;20.17;10.45;;;19.50;99.90;;;;;;5068751;28;20101;-75
2022/10/28 05:57:55;;;;;;;26.27;10.75;;;19.70;99.90;;;;;;5051950;28;20056;-75
2022/10/28 06:00:25;;;;;;;16.80;9.48;;;19.90;99.90;;;;;;5068776;28;20127;-75
2022/10/28 06:03:01;;;;;;;24.60;11.02;;;20.20;99.90;;;;;;5070328;28;20047;-74
2022/10/28 06:05:29;;;;;;;29.08;9.95;;;20.50;99.90;;;;;;5036790;28;20354;-74
2022/10/28 06:07:57;;;;;;;17.02;9.00;;;20.80;99.90;;;;;;5069672;28;20385;-73
2022/10/28 06:10:24;;;;;;;15.73;7.43;;;21.00;99.90;;;;;;5068602;28;20045;-74
2022/10/28 06:12:55;;;;;;;20.23;9.25;;;21.20;99.90;;;;;;5070511;28;20060;-76
2022/10/28 06:15:23;;;;;;;18.95;9.15;;;21.50;99.90;;;;;;5068027;28;20052;-77
2022/10/28 06:17:50;;;;;;;13.45;7.63;;;21.80;99.90;;;;;;5069223;28;20045;-76
2022/10/28 06:20:18;;;;;;;14.80;7.75;;;22.10;99.90;;;;;;5068784;28;20044;-75
2022/10/28 06:22:48;;;;;;;20.05;9.00;;;22.30;99.90;;;;;;5052827;28;20052;-74
2022/10/28 06:25:16;;;;;;;23.88;8.88;;;22.50;99.90;;;;;;5070770;28;20428;-74
2022/10/28 06:27:44;;;;;;;20.50;7.90;;;22.80;99.90;;;;;;5068972;28;20147;-75
2022/10/28 06:30:12;;;;;;;16.65;8.77;;;23.00;99.90;;;;;;5052715;28;20051;-75
2022/10/28 06:32:39;;;;;;;18.25;9.05;;;23.40;99.90;;;;;;5069249;28;20049;-74
2022/10/28 06:35:07;;;;;;;11.95;7.50;;;23.80;99.90;;;;;;5069032;28;20604;-74
2022/10/28 06:37:34;;;;;;;20.20;7.75;;;24.10;99.90;;;;;;5069296;28;20147;-74
2022/10/28 06:40:02;;;;;;;15.88;7.38;;;24.30;99.90;;;;;;5052311;28;20139;-74
2022/10/28 06:42:30;;;;;;;18.67;8.85;;;24.50;99.90;;;;;;5069682;28;20036;-74
2022/10/28 06:44:57;;;;;;;19.75;7.32;;;24.40;99.90;;;;;;5069513;28;20060;-75
2022/10/28 06:47:25;;;;;;;17.77;8.30;;;24.40;99.90;;;;;;5069599;28;20045;-74
2022/10/28 06:49:53;;;;;;;11.18;7.88;;;24.30;99.90;;;;;;5070436;28;20404;-73
2022/10/28 06:52:21;;;;;;;14.95;8.18;;;24.20;99.90;;;;;;5052408;28;20087;-74
2022/10/28 06:54:48;;;;;;;17.08;6.93;;;24.20;99.90;;;;;;5052093;28;20055;-73
2022/10/28 06:57:15;;;;;;;13.73;6.43;;;24.20;99.90;;;;;;5067248;28;20094;-75
2022/10/28 06:59:43;;;;;;;12.73;6.30;;;24.30;99.90;;;;;;5048115;28;20528;-74
2022/10/28 07:02:11;;;;;;;17.23;6.72;;;24.40;99.90;;;;;;5032034;28;20250;-75
2022/10/28 07:04:38;;;;;;;14.75;6.28;;;24.60;99.90;;;;;;5031977;28;20049;-76
2022/10/28 07:07:06;;;;;;;17.38;8.15;;;24.80;99.90;;;;;;5049507;28;20052;-74
2022/10/28 07:09:38;;;;;;;10.35;6.10;;;25.00;99.90;;;;;;5032131;28;20071;-74
2022/10/28 07:12:06;;;;;;;11.10;5.90;;;25.10;99.90;;;;;;5032050;28;20083;-73
2022/10/28 07:14:34;;;;;;;15.95;6.30;;;25.20;99.90;;;;;;5048335;28;20065;-73
2022/10/28 07:17:01;;;;;;;10.50;5.93;;;25.30;99.90;;;;;;5031533;28;20048;-73
2022/10/28 07:19:29;;;;;;;12.10;5.35;;;25.20;99.90;;;;;;5047835;28;20051;-72
2022/10/28 07:21:56;;;;;;;12.40;6.32;;;25.10;99.90;;;;;;5031312;28;20040;-74
2022/10/28 07:24:24;;;;;;;20.40;5.70;;;25.10;99.90;;;;;;5047928;28;20063;-72
2022/10/28 07:26:51;;;;;;;10.57;4.80;;;25.10;99.90;;;;;;5014958;28;20076;-76
2022/10/28 07:29:19;;;;;;;9.77;4.70;;;25.10;99.90;;;;;;5031410;28;20053;-74
2022/10/28 07:31:46;;;;;;;9.20;5.65;;;25.10;99.90;;;;;;5048816;28;20076;-73
2022/10/28 07:34:14;;;;;;;9.05;6.05;;;25.10;99.90;;;;;;5047408;28;20049;-73
2022/10/28 07:36:41;;;;;;;12.90;5.80;;;25.10;99.90;;;;;;5031012;28;20136;-72
2022/10/28 07:39:09;;;;;;;11.13;5.03;;;25.10;99.90;;;;;;5049167;28;20048;-74
2022/10/28 07:41:36;;;;;;;12.50;5.05;;;25.00;99.90;;;;;;5047836;28;20037;-73
2022/10/28 07:44:05;;;;;;;12.23;5.07;;;25.10;99.90;;;;;;5047442;28;20041;-73
2022/10/28 07:46:33;;;;;;;8.23;4.97;;;25.10;99.90;;;;;;5047601;28;20094;-73
2022/10/28 07:49:01;;;;;;;11.43;4.28;;;25.20;99.90;;;;;;5047640;28;20059;-73
2022/10/28 07:51:28;;;;;;;9.45;4.40;;;25.20;99.90;;;;;;5048651;28;20048;-73
2022/10/28 07:53:56;;;;;;;8.10;4.10;;;25.20;99.90;;;;;;5047157;28;20053;-75
2022/10/28 07:56:24;;;;;;;7.40;4.15;;;25.30;99.90;;;;;;5069784;28;20052;-75
2022/10/28 07:58:51;;;;;;;13.45;4.75;;;25.40;99.90;;;;;;5069080;28;20041;-73
2022/10/28 08:01:20;;;;;;;14.48;4.43;;;25.50;99.90;;;;;;5068871;28;20146;-74
2022/10/28 08:03:47;;;;;;;15.98;7.75;;;25.50;99.90;;;;;;5067380;28;20063;-76
2022/10/28 08:06:18;;;;;;;21.42;9.63;;;25.50;99.90;;;;;;5067483;28;20807;-73
2022/10/28 08:08:47;;;;;;;18.58;9.13;;;25.50;99.90;;;;;;5067649;28;20051;-74
2022/10/28 08:11:23;;;;;;;15.82;7.38;;;25.50;99.90;;;;;;5050936;28;20074;-73
2022/10/28 08:13:52;;;;;;;14.02;6.20;;;25.60;99.90;;;;;;5050517;28;20140;-74
2022/10/28 08:16:19;;;;;;;9.98;4.47;;;25.70;99.90;;;;;;5068627;28;20044;-75
2022/10/28 08:18:47;;;;;;;13.00;5.80;;;25.80;99.90;;;;;;5067449;28;20514;-73
2022/10/28 08:21:15;;;;;;;15.20;5.90;;;26.00;99.90;;;;;;5051114;28;20064;-74
2022/10/28 08:23:45;;;;;;;11.65;4.75;;;26.00;99.90;;;;;;5050817;28;20059;-73
2022/10/28 08:26:14;;;;;;;13.77;5.50;;;26.00;99.90;;;;;;5050536;28;20143;-75
2022/10/28 08:28:42;;;;;;;15.70;7.30;;;26.00;99.90;;;;;;5067407;28;20056;-73
2022/10/28 08:31:11;;;;;;;11.48;4.75;;;26.10;99.90;;;;;;5067328;28;20498;-73
2022/10/28 08:33:44;;;;;;;7.40;3.20;;;26.20;99.90;;;;;;5066714;28;20036;-76
2022/10/28 08:36:14;;;;;;;9.75;5.72;;;26.10;99.90;;;;;;5067243;28;20137;-75
2022/10/28 08:38:43;;;;;;;14.52;7.45;;;26.20;99.90;;;;;;5070066;28;20068;-74
2022/10/28 08:41:14;;;;;;;15.35;6.28;;;26.10;99.90;;;;;;5072276;28;20049;-74
2022/10/28 08:43:45;;;;;;;9.98;4.93;;;26.30;99.90;;;;;;5048861;28;20570;-74
2022/10/28 08:47:16;;;;;;;8.23;4.68;;;26.30;99.90;;;;;;5069765;28;20143;-73
2022/10/28 08:49:47;;;;;;;6.45;3.13;;;26.40;99.90;;;;;;4999889;28;20057;-73
2022/10/28 08:52:34;;;;;;;9.38;4.18;;;26.40;99.90;;;;;;5071680;28;20048;-74
2022/10/28 08:55:24;;;;;;;9.98;5.22;;;26.50;99.90;;;;;;5076858;28;20512;-75
2022/10/28 08:58:00;;;;;;;8.65;3.25;;;26.50;99.90;;;;;;5086277;28;20048;-76
2022/10/28 09:00:31;;;;;;;6.20;3.00;;;26.60;99.90;;;;;;5078677;28;20562;-80
2022/10/28 09:03:10;;;;;;;8.52;3.47;;;26.60;99.90;;;;;;5055126;28;20065;-75
2022/10/28 09:05:51;;;;;;;7.25;2.88;;;26.60;99.90;;;;;;5076730;28;20036;-75
2022/10/28 09:08:24;;;;;;;7.43;4.13;;;26.50;99.90;;;;;;5059583;28;20706;-75
2022/10/28 09:11:14;;;;;;;6.60;3.22;;;26.40;99.90;;;;;;5064561;28;20111;-74
2022/10/28 09:14:12;;;;;;;10.32;4.63;;;26.60;99.90;;;;;;5046431;28;20111;-75
2022/10/28 09:16:40;;;;;;;6.38;3.17;;;26.80;99.90;;;;;;5067489;28;20558;-73
2022/10/28 09:19:27;;;;;;;11.05;4.28;;;26.70;99.90;;;;;;5059410;28;20055;-74
2022/10/28 09:22:22;;;;;;;9.20;3.30;;;26.50;99.90;;;;;;5081675;28;20055;-75
2022/10/28 09:24:58;;;;;;;9.63;3.53;;;26.50;99.90;;;;;;5064578;28;20044;-74
2022/10/28 09:27:28;;;;;;;8.23;3.72;;;26.50;99.90;;;;;;5079977;28;20040;-74
2022/10/28 09:30:24;;;;;;;8.02;4.10;;;26.60;99.90;;;;;;5041512;28;20053;-73
2022/10/28 09:33:10;;;;;;;7.80;2.80;;;26.60;99.90;;;;;;5058911;28;20151;-74
2022/10/28 09:35:42;;;;;;;;;;;26.80;99.90;;;;;;5038167;28;20044;-75
2022/10/28 09:38:15;;;;;;;11.43;4.82;;;26.90;99.90;;;;;;5071827;28;20322;-75
2022/10/28 09:40:51;;;;;;;12.25;3.95;;;27.00;99.90;;;;;;5072215;28;20037;-74
2022/10/28 09:43:29;;;;;;;10.68;4.18;;;27.10;99.90;;;;;;5080495;28;20053;-74
2022/10/28 09:46:17;;;;;;;12.65;4.35;;;27.20;99.90;;;;;;5037109;28;20052;-74
2022/10/28 09:48:54;;;;;;;10.48;4.28;;;27.30;99.90;;;;;;5035578;28;20540;-75
2022/10/28 09:51:28;;;;;;;6.25;4.18;;;27.20;99.90;;;;;;5053179;28;20048;-74
2022/10/28 09:53:58;;;;;;;16.42;4.97;;;27.30;99.90;;;;;;5069661;28;20114;-73
2022/10/28 09:56:27;;;;;;;11.27;4.55;;;27.20;99.90;;;;;;5070799;28;20044;-74
2022/10/28 09:58:58;;;;;;;8.18;3.60;;;27.10;99.90;;;;;;5070401;28;20383;-74
2022/10/28 10:01:35;;;;;;;9.95;5.43;;;27.00;99.90;;;;;;5069924;28;20082;-74
2022/10/28 10:04:16;;;;;;;5.22;3.30;;;27.00;99.90;;;;;;5069762;28;20136;-75
2022/10/28 10:06:46;;;;;;;7.78;4.50;;;26.80;99.90;;;;;;5069634;28;20127;-74
2022/10/28 10:09:26;;;;;;;7.07;4.13;;;27.00;99.90;;;;;;5069899;28;20434;-74
2022/10/28 10:11:59;;;;;;;6.50;3.95;;;27.10;99.90;;;;;;5052288;28;20044;-75
2022/10/28 10:14:56;;;;;;;7.85;3.90;;;27.10;99.90;;;;;;5069190;28;20498;-73
2022/10/28 10:17:31;;;;;;;17.33;5.28;;;27.10;99.90;;;;;;5068364;28;20048;-73
2022/10/28 10:20:08;;;;;;;14.27;4.28;;;27.30;99.90;;;;;;5070562;28;20143;-73
2022/10/28 10:22:45;;;;;;;11.50;4.55;;;27.20;99.90;;;;;;5069248;28;20041;-73
2022/10/28 10:25:18;;;;;;;9.73;3.80;;;27.20;99.90;;;;;;5063471;28;20526;-73
2022/10/28 10:28:15;;;;;;;10.75;6.30;;;27.20;99.90;;;;;;5048612;28;20132;-73
2022/10/28 10:30:53;;;;;;;6.90;4.00;;;27.10;99.90;;;;;;5048156;28;20195;-73
2022/10/28 10:33:33;;;;;;;8.27;4.68;;;27.20;99.90;;;;;;5034913;28;20052;-74
2022/10/28 10:36:08;;;;;;;9.95;5.07;;;27.10;99.90;;;;;;5048591;28;20463;-74
2022/10/28 10:38:37;;;;;;;7.25;3.80;;;27.00;99.90;;;;;;5032423;28;20499;-74
2022/10/28 10:41:05;;;;;;;8.30;4.15;;;26.90;99.90;;;;;;5032877;28;20053;-74
2022/10/28 10:43:34;;;;;;;10.43;4.45;;;27.00;99.90;;;;;;5049990;28;20043;-74
2022/10/28 10:46:16;;;;;;;8.70;4.65;;;27.00;99.90;;;;;;5049721;28;20041;-73
2022/10/28 10:48:44;;;;;;;8.07;3.67;;;27.10;99.90;;;;;;5032135;28;20045;-72
2022/10/28 10:51:26;;;;;;;8.07;4.15;;;27.00;99.90;;;;;;5032353;28;20495;-74
2022/10/28 10:54:00;;;;;;;10.38;5.15;;;27.00;99.90;;;;;;5031748;28;20044;-74
2022/10/28 10:56:30;;;;;;;6.30;4.05;;;27.00;99.90;;;;;;5031983;28;20435;-74
2022/10/28 10:59:04;;;;;;;10.80;4.32;;;26.90;99.90;;;;;;5031658;28;20139;-74
2022/10/28 11:01:35;;;;;;;6.78;4.20;;;26.90;99.90;;;;;;5049455;28;20052;-73
2022/10/28 11:04:14;;;;;;;6.70;3.47;;;26.90;99.90;;;;;;5064754;28;20045;-73
2022/10/28 11:06:47;;;;;;;5.88;3.95;;;27.00;99.90;;;;;;5048416;28;20079;-74
2022/10/28 11:09:38;;;;;;;11.15;4.97;;;27.00;99.90;;;;;;5048089;28;20058;-73
2022/10/28 11:12:34;;;;;;;7.18;4.10;;;26.90;99.90;;;;;;5049570;28;20111;-74
2022/10/28 11:15:20;;;;;;;5.53;3.22;;;26.90;99.90;;;;;;5048041;28;20115;-74
2022/10/28 11:17:57;;;;;;;8.90;4.60;;;27.00;99.90;;;;;;5030861;28;20578;-74
2022/10/28 11:20:29;;;;;;;7.50;3.22;;;;;;;;;;5031615;28;20560;-74
2022/10/28 11:23:23;;;;;;;7.28;3.40;;;27.00;99.90;;;;;;5047997;28;20499;-73
2022/10/28 11:26:00;;;;;;;8.52;4.35;;;26.90;99.90;;;;;;5056609;28;20045;-73
2022/10/28 11:28:46;;;;;;;8.00;3.92;;;26.90;99.90;;;;;;5051343;28;20538;-70
2022/10/28 11:32:08;;;;;;;8.95;4.40;;;26.90;99.90;;;;;;5035139;28;20125;-76
2022/10/28 11:35:11;;;;;;;7.80;3.53;;;26.90;99.90;;;;;;5010293;28;20092;-73
2022/10/28 11:37:50;;;;;;;10.20;4.63;;;27.10;99.90;;;;;;5054506;28;20147;-76
2022/10/28 11:40:38;;;;;;;10.27;3.97;;;26.90;99.90;;;;;;5051145;28;20076;-73
2022/10/28 11:43:32;;;;;;;12.70;4.20;;;26.70;99.90;;;;;;5035204;28;20114;-73
2022/10/28 11:46:13;;;;;;;7.18;3.67;;;26.50;99.90;;;;;;5067565;28;20040;-73
2022/10/28 11:48:43;;;;;;;8.85;3.33;;;26.40;99.90;;;;;;5067776;28;20049;-73
2022/10/28 11:51:16;;;;;;;8.95;3.38;;;26.30;99.70;;;;;;5067757;28;20463;-73
2022/10/28 11:53:47;;;;;;;8.27;3.30;;;26.30;99.70;;;;;;5051350;28;20044;-73
2022/10/28 11:56:27;;;;;;;9.57;3.45;;;26.50;99.90;;;;;;5068962;28;20041;-73
2022/10/28 11:59:15;;;;;;;7.40;4.43;;;26.30;99.90;;;;;;5067351;28;20127;-73
2022/10/28 12:01:43;;;;;;;5.75;3.47;;;26.20;99.90;;;;;;5056918;28;20052;-72
2022/10/28 12:04:13;;;;;;;8.05;3.40;;;26.40;99.90;;;;;;5067324;28;20177;-73
2022/10/28 12:06:59;;;;;;;7.68;3.75;;;26.30;99.90;;;;;;5067132;28;20202;-72
2022/10/28 12:09:33;;;;;;;6.45;2.92;;;26.30;99.90;;;;;;5034251;28;20467;-73
2022/10/28 12:12:29;;;;;;;8.98;3.90;;;26.30;99.90;;;;;;5066436;28;20068;-74
2022/10/28 12:15:10;;;;;;;9.20;4.47;;;26.30;99.90;;;;;;5067590;28;20048;-73
2022/10/28 12:18:10;;;;;;;6.97;3.17;;;26.30;99.90;;;;;;5067438;28;20379;-73
2022/10/28 12:21:03;;;;;;;7.70;3.22;;;26.10;99.90;;;;;;5063230;28;20052;-73
2022/10/28 12:23:34;;;;;;;7.05;3.13;;;26.00;99.90;;;;;;5050130;28;20066;-73
2022/10/28 12:26:06;;;;;;;11.35;3.38;;;25.80;99.70;;;;;;5068454;28;20121;-73
2022/10/28 12:28:44;;;;;;;12.25;4.82;;;25.80;99.70;;;;;;5067082;28;20402;-73
2022/10/28 12:31:21;;;;;;;6.28;3.20;;;25.80;99.90;;;;;;5050943;28;20076;-73
2022/10/28 12:34:03;;;;;;;8.52;4.45;;;25.80;99.90;;;;;;5049927;28;20522;-73
2022/10/28 12:36:40;;;;;;;8.73;3.47;;;25.70;99.90;;;;;;5067829;28;20044;-74
2022/10/28 12:39:20;;;;;;;5.30;2.83;;;25.60;99.90;;;;;;5034070;28;20095;-74
2022/10/28 12:42:24;;;;;;;7.50;3.60;;;25.40;99.90;;;;;;5033533;28;20048;-72
2022/10/28 12:44:55;;;;;;;6.68;3.08;;;25.30;99.90;;;;;;5043236;28;20059;-73
2022/10/28 12:47:46;;;;;;;10.18;4.18;;;25.40;99.90;;;;;;5068382;28;20044;-73
2022/10/28 12:50:17;;;;;;;6.10;2.90;;;25.30;99.90;;;;;;5054811;28;20052;-73
2022/10/28 12:53:02;;;;;;;6.30;3.22;;;25.30;99.90;;;;;;5050444;28;20134;-74
2022/10/28 12:55:41;;;;;;;7.28;3.03;;;25.30;99.90;;;;;;5047871;28;20565;-74
2022/10/28 12:58:14;;;;;;;6.30;3.60;;;25.40;99.90;;;;;;5050602;28;20076;-74
2022/10/28 13:00:48;;;;;;;6.00;3.50;;;25.30;99.90;;;;;;5066853;28;20053;-74
2022/10/28 13:03:16;;;;;;;6.07;3.10;;;25.30;99.90;;;;;;5067085;28;20045;-76
2022/10/28 13:06:05;;;;;;;7.05;3.33;;;25.20;99.90;;;;;;5033474;28;20044;-74
2022/10/28 13:08:48;;;;;;;9.93;3.72;;;25.00;99.90;;;;;;5067187;28;20056;-75